FIN1DH EFHK-EDDM
Flight info
| Callsign | FIN1DH |
|---|---|
| Flight time | N/A |
| Altitude | 40000 |
| Route | VALOX Y117 ROSAX DCT ANFEV DCT PENOR DCT GOVEN DCT MAREM DCT VESUB T106 TUSTO T108 LANDU LANDU2B |
| Aircraft | A359/H-SDE2E3GHIJ1J3J4J5LM1ORWXY/LB1D1 |
Departure
| Time | 2026-04-25 18:03 |
|---|---|
| Airport | Helsinki Vantaa Airport (EFHK) |
Arrival
| Time | N/A |
|---|---|
| Airport | Munich Airport (EDDM) |
| Time | Latitude | Longitude | Altitude | Speed | Heading |
|---|---|---|---|---|---|
| 2026-04-25 17:24 | 60.31412 | 24.95518 | 170 ft | 0 kts | 138° |
| 2026-04-25 17:55 | 60.31413 | 24.95516 | 170 ft | 4 kts | 137° |
| 2026-04-25 17:55 | 60.31432 | 24.95477 | 170 ft | 4 kts | 127° |
| 2026-04-25 17:55 | 60.31446 | 24.95434 | 170 ft | 4 kts | 113° |
| 2026-04-25 17:56 | 60.31453 | 24.95387 | 170 ft | 4 kts | 88° |
| 2026-04-25 17:56 | 60.31449 | 24.95348 | 170 ft | 3 kts | 50° |
| 2026-04-25 17:56 | 60.31455 | 24.95360 | 170 ft | 0 kts | 47° |
| 2026-04-25 17:56 | 60.31455 | 24.95361 | 170 ft | 0 kts | 47° |
| 2026-04-25 17:58 | 60.31463 | 24.95379 | 170 ft | 11 kts | 48° |
| 2026-04-25 17:58 | 60.31540 | 24.95544 | 170 ft | 18 kts | 47° |
| 2026-04-25 17:58 | 60.31614 | 24.95663 | 170 ft | 10 kts | 3° |
| 2026-04-25 17:59 | 60.31653 | 24.95623 | 170 ft | 7 kts | 325° |
| 2026-04-25 17:59 | 60.31695 | 24.95566 | 173 ft | 9 kts | 340° |
| 2026-04-25 17:59 | 60.31749 | 24.95583 | 176 ft | 8 kts | 22° |
| 2026-04-25 17:59 | 60.31794 | 24.95664 | 175 ft | 11 kts | 46° |
| 2026-04-25 18:00 | 60.31881 | 24.95855 | 175 ft | 22 kts | 46° |
| 2026-04-25 18:00 | 60.31965 | 24.95945 | 176 ft | 7 kts | 335° |
| 2026-04-25 18:00 | 60.32038 | 24.95828 | 179 ft | 27 kts | 317° |
| 2026-04-25 18:00 | 60.32178 | 24.95566 | 180 ft | 27 kts | 317° |
| 2026-04-25 18:01 | 60.32308 | 24.95326 | 182 ft | 24 kts | 321° |
| 2026-04-25 18:01 | 60.32453 | 24.95200 | 192 ft | 22 kts | 342° |
| 2026-04-25 18:01 | 60.32588 | 24.95111 | 200 ft | 19 kts | 341° |
| 2026-04-25 18:01 | 60.32714 | 24.95029 | 199 ft | 20 kts | 342° |
| 2026-04-25 18:02 | 60.32850 | 24.94939 | 181 ft | 21 kts | 341° |
| 2026-04-25 18:02 | 60.32965 | 24.94776 | 184 ft | 19 kts | 318° |
| 2026-04-25 18:02 | 60.33057 | 24.94611 | 202 ft | 16 kts | 316° |
| 2026-04-25 18:02 | 60.33115 | 24.94466 | 202 ft | 9 kts | 280° |
| 2026-04-25 18:03 | 60.33092 | 24.94345 | 208 ft | 10 kts | 235° |
| 2026-04-25 18:03 | 60.32934 | 24.93992 | 202 ft | 77 kts | 227° |
| 2026-04-25 18:03 | 60.32360 | 24.92718 | 203 ft | 165 kts | 231° |
| 2026-04-25 18:03 | 60.31480 | 24.90910 | 996 ft | 185 kts | 230° |
| 2026-04-25 18:04 | 60.30545 | 24.89044 | 2066 ft | 199 kts | 231° |
| 2026-04-25 18:04 | 60.29667 | 24.86886 | 3176 ft | 194 kts | 240° |
| 2026-04-25 18:04 | 60.29355 | 24.84537 | 4030 ft | 167 kts | 284° |
| 2026-04-25 18:04 | 60.29694 | 24.82214 | 4372 ft | 182 kts | 294° |
| 2026-04-25 18:05 | 60.30035 | 24.79584 | 4650 ft | 206 kts | 284° |
| 2026-04-25 18:05 | 60.29962 | 24.76529 | 4931 ft | 235 kts | 261° |
| 2026-04-25 18:05 | 60.29437 | 24.73237 | 5340 ft | 255 kts | 253° |
| 2026-04-25 18:05 | 60.28774 | 24.69862 | 6024 ft | 262 kts | 252° |
| 2026-04-25 18:06 | 60.28080 | 24.66441 | 6773 ft | 265 kts | 251° |
| 2026-04-25 18:06 | 60.27372 | 24.62997 | 7560 ft | 267 kts | 251° |
| 2026-04-25 18:06 | 60.26663 | 24.59514 | 8364 ft | 270 kts | 251° |
| 2026-04-25 18:06 | 60.25948 | 24.55998 | 9174 ft | 273 kts | 251° |
| 2026-04-25 18:07 | 60.25212 | 24.52468 | 9948 ft | 276 kts | 249° |
| 2026-04-25 18:07 | 60.24145 | 24.49229 | 10708 ft | 283 kts | 229° |
| 2026-04-25 18:07 | 60.22483 | 24.46955 | 11253 ft | 301 kts | 206° |
| 2026-04-25 18:07 | 60.20452 | 24.45479 | 11609 ft | 319 kts | 201° |
| 2026-04-25 18:08 | 60.18278 | 24.44086 | 12005 ft | 334 kts | 201° |
| 2026-04-25 18:08 | 60.16052 | 24.42637 | 12658 ft | 339 kts | 201° |
| 2026-04-25 18:08 | 60.13804 | 24.41145 | 13371 ft | 341 kts | 201° |
| 2026-04-25 18:08 | 60.11569 | 24.39654 | 13986 ft | 344 kts | 201° |
| 2026-04-25 18:09 | 60.09284 | 24.38111 | 14615 ft | 347 kts | 202° |
| 2026-04-25 18:09 | 60.06984 | 24.36550 | 15258 ft | 350 kts | 201° |
| 2026-04-25 18:09 | 60.04667 | 24.34985 | 15914 ft | 352 kts | 202° |
| 2026-04-25 18:09 | 60.03914 | 24.34477 | 16123 ft | 353 kts | 202° |
| 2026-04-25 18:10 | 60.00785 | 24.32368 | 16985 ft | 356 kts | 202° |
| 2026-04-25 18:10 | 59.98426 | 24.30773 | 17632 ft | 359 kts | 201° |
| 2026-04-25 18:10 | 59.95280 | 24.28657 | 18359 ft | 362 kts | 201° |
| 2026-04-25 18:10 | 59.93660 | 24.27569 | 18725 ft | 363 kts | 201° |
| 2026-04-25 18:11 | 59.90471 | 24.25431 | 19429 ft | 366 kts | 201° |
| 2026-04-25 18:11 | 59.88872 | 24.24357 | 19789 ft | 367 kts | 202° |
| 2026-04-25 18:11 | 59.86442 | 24.22728 | 20316 ft | 370 kts | 202° |
| 2026-04-25 18:11 | 59.83999 | 24.21093 | 20845 ft | 372 kts | 202° |
| 2026-04-25 18:12 | 59.81538 | 24.19451 | 21364 ft | 374 kts | 201° |
| 2026-04-25 18:12 | 59.79058 | 24.17803 | 21871 ft | 377 kts | 201° |
| 2026-04-25 18:12 | 59.76562 | 24.16146 | 22381 ft | 379 kts | 202° |
| 2026-04-25 18:12 | 59.74073 | 24.14389 | 22869 ft | 380 kts | 206° |
| 2026-04-25 18:13 | 59.71743 | 24.11958 | 23284 ft | 379 kts | 214° |
| 2026-04-25 18:13 | 59.69528 | 24.09093 | 23642 ft | 381 kts | 217° |
| 2026-04-25 18:13 | 59.67358 | 24.06033 | 23987 ft | 384 kts | 219° |
| 2026-04-25 18:14 | 59.63014 | 23.99722 | 24704 ft | 390 kts | 219° |
| 2026-04-25 18:14 | 59.60808 | 23.96543 | 25039 ft | 393 kts | 219° |
| 2026-04-25 18:14 | 59.58579 | 23.93362 | 25372 ft | 397 kts | 219° |
| 2026-04-25 18:14 | 59.56328 | 23.90172 | 25708 ft | 400 kts | 219° |
| 2026-04-25 18:15 | 59.54082 | 23.87009 | 26053 ft | 403 kts | 218° |
| 2026-04-25 18:15 | 59.51794 | 23.83797 | 26391 ft | 406 kts | 218° |
| 2026-04-25 18:15 | 59.49479 | 23.80554 | 26748 ft | 408 kts | 218° |
| 2026-04-25 18:15 | 59.47282 | 23.77002 | 27064 ft | 409 kts | 226° |
| 2026-04-25 18:16 | 59.45233 | 23.73097 | 27437 ft | 412 kts | 227° |
| 2026-04-25 18:16 | 59.43220 | 23.69079 | 27792 ft | 414 kts | 229° |
| 2026-04-25 18:16 | 59.39204 | 23.60835 | 28503 ft | 420 kts | 229° |
| 2026-04-25 18:17 | 59.37175 | 23.56656 | 28853 ft | 424 kts | 229° |
| 2026-04-25 18:17 | 59.35124 | 23.52441 | 29186 ft | 427 kts | 229° |
| 2026-04-25 18:17 | 59.33085 | 23.48268 | 29514 ft | 431 kts | 229° |
| 2026-04-25 18:17 | 59.31000 | 23.44021 | 29787 ft | 434 kts | 229° |
| 2026-04-25 18:18 | 59.28900 | 23.39758 | 30070 ft | 437 kts | 229° |
| 2026-04-25 18:18 | 59.26775 | 23.35468 | 30360 ft | 439 kts | 229° |
| 2026-04-25 18:18 | 59.24640 | 23.31163 | 30641 ft | 443 kts | 229° |
| 2026-04-25 18:18 | 59.22488 | 23.26833 | 30921 ft | 445 kts | 229° |
| 2026-04-25 18:19 | 59.20319 | 23.22477 | 31179 ft | 449 kts | 229° |
| 2026-04-25 18:19 | 59.18133 | 23.18106 | 31461 ft | 451 kts | 229° |
| 2026-04-25 18:19 | 59.15927 | 23.13698 | 31720 ft | 454 kts | 229° |
| 2026-04-25 18:19 | 59.13707 | 23.09271 | 31973 ft | 457 kts | 229° |
| 2026-04-25 18:20 | 59.11513 | 23.04882 | 32202 ft | 460 kts | 229° |
| 2026-04-25 18:20 | 59.09274 | 23.00393 | 32433 ft | 463 kts | 229° |
| 2026-04-25 18:20 | 59.06990 | 22.95830 | 32671 ft | 465 kts | 229° |
| 2026-04-25 18:20 | 59.04755 | 22.91385 | 32890 ft | 468 kts | 229° |
| 2026-04-25 18:21 | 59.02468 | 22.86856 | 33096 ft | 471 kts | 229° |
| 2026-04-25 18:21 | 59.00167 | 22.82315 | 33294 ft | 473 kts | 229° |
| 2026-04-25 18:21 | 58.97847 | 22.77746 | 33514 ft | 476 kts | 228° |
| 2026-04-25 18:21 | 58.95517 | 22.73170 | 33669 ft | 478 kts | 228° |
| 2026-04-25 18:22 | 58.93176 | 22.68585 | 33871 ft | 480 kts | 228° |
| 2026-04-25 18:22 | 58.91617 | 22.65535 | 33988 ft | 480 kts | 228° |
| 2026-04-25 18:22 | 58.88464 | 22.59382 | 34256 ft | 482 kts | 228° |
| 2026-04-25 18:22 | 58.86103 | 22.54780 | 34524 ft | 482 kts | 228° |
| 2026-04-25 18:23 | 58.83745 | 22.50188 | 34809 ft | 481 kts | 228° |
| 2026-04-25 18:23 | 58.81385 | 22.45605 | 35105 ft | 480 kts | 228° |
| 2026-04-25 18:23 | 58.79027 | 22.41041 | 35381 ft | 480 kts | 228° |
| 2026-04-25 18:23 | 58.76701 | 22.36549 | 35669 ft | 479 kts | 228° |
| 2026-04-25 18:24 | 58.74349 | 22.32011 | 35927 ft | 479 kts | 228° |
| 2026-04-25 18:24 | 58.71988 | 22.27463 | 36176 ft | 479 kts | 228° |
| 2026-04-25 18:24 | 58.69630 | 22.22931 | 36435 ft | 479 kts | 228° |
| 2026-04-25 18:24 | 58.67272 | 22.18410 | 36711 ft | 478 kts | 228° |
| 2026-04-25 18:25 | 58.64912 | 22.13896 | 36985 ft | 478 kts | 228° |
| 2026-04-25 18:25 | 58.62554 | 22.09389 | 37236 ft | 478 kts | 228° |
| 2026-04-25 18:25 | 58.60195 | 22.04887 | 37479 ft | 478 kts | 227° |
| 2026-04-25 18:25 | 58.57838 | 22.00397 | 37729 ft | 477 kts | 228° |
| 2026-04-25 18:26 | 58.55482 | 21.95919 | 38002 ft | 477 kts | 227° |
| 2026-04-25 18:26 | 58.53125 | 21.91452 | 38258 ft | 476 kts | 227° |
| 2026-04-25 18:26 | 58.50766 | 21.86995 | 38439 ft | 476 kts | 227° |
| 2026-04-25 18:26 | 58.48406 | 21.82542 | 38594 ft | 477 kts | 227° |
| 2026-04-25 18:27 | 58.46069 | 21.78137 | 38727 ft | 478 kts | 227° |
| 2026-04-25 18:27 | 58.43696 | 21.73676 | 38881 ft | 479 kts | 227° |
| 2026-04-25 18:27 | 58.41316 | 21.69210 | 39044 ft | 479 kts | 227° |
| 2026-04-25 18:27 | 58.38938 | 21.64756 | 39205 ft | 479 kts | 227° |
| 2026-04-25 18:28 | 58.36555 | 21.60301 | 39348 ft | 480 kts | 227° |
| 2026-04-25 18:28 | 58.34167 | 21.55854 | 39503 ft | 480 kts | 227° |
| 2026-04-25 18:28 | 58.31770 | 21.51400 | 39609 ft | 481 kts | 227° |
| 2026-04-25 18:29 | 58.24581 | 21.38067 | 39647 ft | 482 kts | 227° |
| 2026-04-25 18:30 | 58.14961 | 21.20343 | 39653 ft | 482 kts | 227° |
| 2026-04-25 18:30 | 58.10121 | 21.11487 | 39660 ft | 483 kts | 227° |
| 2026-04-25 18:31 | 58.05284 | 21.02679 | 39667 ft | 483 kts | 227° |
| 2026-04-25 18:31 | 58.00474 | 20.93951 | 39668 ft | 483 kts | 227° |
| 2026-04-25 18:32 | 57.95621 | 20.85176 | 39675 ft | 484 kts | 227° |
| 2026-04-25 18:32 | 57.90760 | 20.76423 | 39681 ft | 484 kts | 227° |
| 2026-04-25 18:33 | 57.85884 | 20.67672 | 39689 ft | 485 kts | 227° |
| 2026-04-25 18:33 | 57.80999 | 20.58942 | 39692 ft | 485 kts | 226° |
| 2026-04-25 18:34 | 57.76123 | 20.50262 | 39695 ft | 485 kts | 226° |
| 2026-04-25 18:34 | 57.71210 | 20.41550 | 39696 ft | 486 kts | 226° |
| 2026-04-25 18:35 | 57.66287 | 20.32852 | 39702 ft | 486 kts | 226° |
| 2026-04-25 18:35 | 57.61364 | 20.24190 | 39700 ft | 487 kts | 226° |
| 2026-04-25 18:36 | 57.56426 | 20.15540 | 39705 ft | 487 kts | 226° |
| 2026-04-25 18:36 | 57.51475 | 20.06898 | 39709 ft | 488 kts | 226° |
| 2026-04-25 18:37 | 57.46522 | 19.98287 | 39712 ft | 488 kts | 226° |
| 2026-04-25 18:37 | 57.41560 | 19.89694 | 39716 ft | 488 kts | 226° |
| 2026-04-25 18:38 | 57.36581 | 19.81106 | 39719 ft | 488 kts | 226° |
| 2026-04-25 18:38 | 57.31601 | 19.72546 | 39718 ft | 488 kts | 226° |
| 2026-04-25 18:39 | 57.26643 | 19.64060 | 39723 ft | 488 kts | 226° |
| 2026-04-25 18:39 | 57.21653 | 19.55550 | 39725 ft | 488 kts | 226° |
| 2026-04-25 18:40 | 57.16652 | 19.47055 | 39725 ft | 489 kts | 226° |
| 2026-04-25 18:40 | 57.11646 | 19.38584 | 39725 ft | 489 kts | 226° |
| 2026-04-25 18:41 | 57.06635 | 19.30137 | 39726 ft | 488 kts | 226° |
| 2026-04-25 18:41 | 57.01613 | 19.21703 | 39729 ft | 488 kts | 226° |
| 2026-04-25 18:42 | 56.98280 | 19.16124 | 39728 ft | 488 kts | 226° |
| 2026-04-25 18:42 | 56.91582 | 19.04991 | 39729 ft | 488 kts | 226° |
| 2026-04-25 18:43 | 56.86538 | 18.96637 | 39730 ft | 488 kts | 226° |
| 2026-04-25 18:43 | 56.81497 | 18.88304 | 39735 ft | 488 kts | 226° |
| 2026-04-25 18:44 | 56.76451 | 18.79990 | 39723 ft | 488 kts | 226° |
| 2026-04-25 18:44 | 56.71397 | 18.71692 | 39734 ft | 488 kts | 226° |
| 2026-04-25 18:45 | 56.66350 | 18.63439 | 39730 ft | 488 kts | 226° |
| 2026-04-25 18:45 | 56.61296 | 18.55205 | 39735 ft | 488 kts | 226° |
| 2026-04-25 18:46 | 56.56240 | 18.47000 | 39731 ft | 487 kts | 226° |
| 2026-04-25 18:46 | 56.51184 | 18.38824 | 39729 ft | 487 kts | 226° |
| 2026-04-25 18:47 | 56.46116 | 18.30660 | 39729 ft | 487 kts | 226° |
| 2026-04-25 18:47 | 56.41082 | 18.22581 | 39725 ft | 487 kts | 226° |
| 2026-04-25 18:48 | 56.36007 | 18.14465 | 39724 ft | 487 kts | 226° |
| 2026-04-25 18:48 | 56.30930 | 18.06376 | 39724 ft | 487 kts | 226° |
| 2026-04-25 18:49 | 56.25849 | 17.98312 | 39725 ft | 487 kts | 226° |
| 2026-04-25 18:49 | 56.20754 | 17.90254 | 39723 ft | 487 kts | 226° |
| 2026-04-25 18:50 | 56.15659 | 17.82227 | 39719 ft | 487 kts | 226° |
| 2026-04-25 18:50 | 56.10561 | 17.74223 | 39718 ft | 487 kts | 226° |
| 2026-04-25 18:51 | 56.07184 | 17.68938 | 39719 ft | 486 kts | 226° |
| 2026-04-25 18:51 | 56.00356 | 17.58290 | 39724 ft | 486 kts | 226° |
| 2026-04-25 18:52 | 55.95285 | 17.50416 | 39720 ft | 486 kts | 226° |
| 2026-04-25 18:52 | 55.90180 | 17.42518 | 39721 ft | 486 kts | 226° |
| 2026-04-25 18:53 | 55.85065 | 17.34632 | 39721 ft | 486 kts | 226° |
| 2026-04-25 18:53 | 55.79844 | 17.26970 | 39725 ft | 491 kts | 219° |
| 2026-04-25 18:54 | 55.73661 | 17.21582 | 39725 ft | 501 kts | 204° |
| 2026-04-25 18:54 | 55.71473 | 17.20236 | 39726 ft | 503 kts | 203° |
| 2026-04-25 18:55 | 55.64786 | 17.16478 | 39721 ft | 503 kts | 204° |
| 2026-04-25 18:55 | 55.57202 | 17.11300 | 39727 ft | 501 kts | 207° |
| 2026-04-25 18:56 | 55.51800 | 17.07374 | 39728 ft | 501 kts | 207° |
| 2026-04-25 18:56 | 55.45401 | 17.02669 | 39730 ft | 501 kts | 207° |
| 2026-04-25 18:57 | 55.38954 | 16.97950 | 39733 ft | 502 kts | 207° |
| 2026-04-25 18:57 | 55.32493 | 16.93252 | 39734 ft | 502 kts | 207° |
| 2026-04-25 18:58 | 55.26031 | 16.88576 | 39734 ft | 503 kts | 207° |
| 2026-04-25 18:58 | 55.16318 | 16.81580 | 39744 ft | 503 kts | 207° |
| 2026-04-25 18:59 | 55.03357 | 16.72300 | 39750 ft | 504 kts | 207° |
| 2026-04-25 19:00 | 54.93619 | 16.65369 | 39751 ft | 503 kts | 207° |
| 2026-04-25 19:01 | 54.83921 | 16.58504 | 39759 ft | 503 kts | 208° |
| 2026-04-25 19:01 | 54.76638 | 16.53371 | 39765 ft | 503 kts | 208° |
| 2026-04-25 19:02 | 54.66950 | 16.46575 | 39773 ft | 503 kts | 208° |
| 2026-04-25 19:03 | 54.59375 | 16.41285 | 39782 ft | 502 kts | 208° |
| 2026-04-25 19:03 | 54.50748 | 16.35283 | 39790 ft | 502 kts | 208° |
| 2026-04-25 19:04 | 54.41069 | 16.28579 | 39805 ft | 501 kts | 208° |
| 2026-04-25 19:05 | 54.28112 | 16.19683 | 39815 ft | 501 kts | 208° |
| 2026-04-25 19:06 | 54.21645 | 16.15258 | 39822 ft | 501 kts | 208° |
| 2026-04-25 19:06 | 54.11974 | 16.08655 | 39837 ft | 500 kts | 208° |
| 2026-04-25 19:07 | 54.02276 | 16.02075 | 39841 ft | 500 kts | 208° |
| 2026-04-25 19:08 | 53.92578 | 15.95542 | 39852 ft | 499 kts | 208° |
| 2026-04-25 19:09 | 53.81850 | 15.88347 | 39866 ft | 498 kts | 208° |
| 2026-04-25 19:10 | 53.70050 | 15.80472 | 39873 ft | 496 kts | 208° |
| 2026-04-25 19:10 | 53.64710 | 15.76923 | 39878 ft | 496 kts | 208° |
| 2026-04-25 19:11 | 53.58290 | 15.72672 | 39888 ft | 495 kts | 208° |
| 2026-04-25 19:11 | 53.51888 | 15.68446 | 39885 ft | 494 kts | 209° |
| 2026-04-25 19:12 | 53.45488 | 15.64235 | 39893 ft | 493 kts | 209° |
| 2026-04-25 19:12 | 53.39144 | 15.60074 | 39901 ft | 492 kts | 209° |
| 2026-04-25 19:13 | 53.33012 | 15.55288 | 39901 ft | 474 kts | 224° |
| 2026-04-25 19:13 | 53.30680 | 15.51625 | 39685 ft | 447 kts | 239° |
| 2026-04-25 19:13 | 53.29097 | 15.47333 | 39067 ft | 423 kts | 254° |
| 2026-04-25 19:13 | 53.28308 | 15.42703 | 37789 ft | 407 kts | 269° |
| 2026-04-25 19:14 | 53.28392 | 15.38059 | 36339 ft | 396 kts | 285° |
| 2026-04-25 19:14 | 53.28934 | 15.35182 | 35512 ft | 388 kts | 296° |
| 2026-04-25 19:14 | 53.31017 | 15.30386 | 33696 ft | 383 kts | 317° |
| 2026-04-25 19:14 | 53.33233 | 15.27920 | 32227 ft | 381 kts | 324° |
| 2026-04-25 19:15 | 53.35524 | 15.25786 | 30525 ft | 382 kts | 325° |
| 2026-04-25 19:15 | 53.37870 | 15.23692 | 28504 ft | 383 kts | 325° |
| 2026-04-25 19:15 | 53.40244 | 15.21609 | 26362 ft | 386 kts | 325° |
| 2026-04-25 19:15 | 53.42626 | 15.19536 | 24611 ft | 384 kts | 325° |
| 2026-04-25 19:16 | 53.44977 | 15.17516 | 23035 ft | 375 kts | 325° |
| 2026-04-25 19:16 | 53.47259 | 15.15521 | 21256 ft | 365 kts | 323° |
| 2026-04-25 19:16 | 53.49350 | 15.13233 | 19580 ft | 352 kts | 317° |
| 2026-04-25 19:16 | 53.51248 | 15.10701 | 17991 ft | 343 kts | 316° |
| 2026-04-25 19:17 | 53.53072 | 15.08170 | 16209 ft | 337 kts | 315° |
| 2026-04-25 19:17 | 53.54904 | 15.05745 | 14461 ft | 337 kts | 321° |
| 2026-04-25 19:17 | 53.57097 | 15.04210 | 12669 ft | 349 kts | 340° |
| 2026-04-25 19:17 | 53.59564 | 15.04059 | 10952 ft | 362 kts | 360° |
| 2026-04-25 19:18 | 53.61951 | 15.05350 | 9485 ft | 371 kts | 20° |
| 2026-04-25 19:18 | 53.63982 | 15.07991 | 8214 ft | 369 kts | 40° |
| 2026-04-25 19:18 | 53.65386 | 15.11593 | 6902 ft | 370 kts | 60° |
| 2026-04-25 19:18 | 53.66008 | 15.15777 | 5614 ft | 369 kts | 82° |
| 2026-04-25 19:19 | 53.65737 | 15.20079 | 4677 ft | 372 kts | 104° |
| 2026-04-25 19:19 | 53.64669 | 15.23921 | 4058 ft | 351 kts | 122° |
| 2026-04-25 19:19 | 53.63342 | 15.27182 | 3577 ft | 325 kts | 127° |
| 2026-04-25 19:19 | 53.62415 | 15.29083 | 3276 ft | 310 kts | 134° |
| 2026-04-25 19:20 | 53.60904 | 15.31550 | 2608 ft | 296 kts | 148° |
| 2026-04-25 19:20 | 53.58434 | 15.32994 | 2068 ft | 272 kts | 186° |
| 2026-04-25 19:20 | 53.56705 | 15.32375 | 1979 ft | 239 kts | 215° |
| 2026-04-25 19:20 | 53.55585 | 15.30734 | 1975 ft | 194 kts | 246° |
| 2026-04-25 19:21 | 53.55286 | 15.28838 | 2002 ft | 154 kts | 276° |
| 2026-04-25 19:21 | 53.54826 | 15.25617 | 2013 ft | 152 kts | 255° |
| 2026-04-25 19:21 | 53.54446 | 15.23921 | 2006 ft | 157 kts | 257° |
| 2026-04-25 19:22 | 53.54088 | 15.22177 | 2006 ft | 158 kts | 260° |
| 2026-04-25 19:22 | 53.53850 | 15.20387 | 2003 ft | 156 kts | 265° |
| 2026-04-25 19:22 | 53.53456 | 15.16821 | 2001 ft | 154 kts | 269° |
| 2026-04-25 19:23 | 53.53431 | 15.15027 | 2001 ft | 153 kts | 275° |
| 2026-04-25 19:23 | 53.53488 | 15.11465 | 2003 ft | 152 kts | 276° |
| 2026-04-25 19:23 | 53.53510 | 15.09690 | 2006 ft | 152 kts | 275° |
| 2026-04-25 19:24 | 53.53533 | 15.07939 | 1999 ft | 152 kts | 275° |
| 2026-04-25 19:24 | 53.53560 | 15.06135 | 1993 ft | 152 kts | 276° |
| 2026-04-25 19:24 | 53.53647 | 15.02894 | 1875 ft | 128 kts | 280° |
| 2026-04-25 19:25 | 53.54164 | 14.99943 | 1800 ft | 131 kts | 293° |
| 2026-04-25 19:25 | 53.54557 | 14.98569 | 1766 ft | 129 kts | 297° |
| 2026-04-25 19:25 | 53.54990 | 14.97313 | 1694 ft | 119 kts | 300° |
| 2026-04-25 19:26 | 53.55473 | 14.96064 | 1436 ft | 134 kts | 302° |
| 2026-04-25 19:26 | 53.56065 | 14.94835 | 1210 ft | 137 kts | 308° |
| 2026-04-25 19:26 | 53.56707 | 14.93635 | 834 ft | 137 kts | 305° |
| 2026-04-25 19:26 | 53.57335 | 14.92441 | 407 ft | 135 kts | 306° |
| 2026-04-25 19:27 | 53.57925 | 14.91295 | 211 ft | 123 kts | 306° |
| 2026-04-25 19:27 | 53.58284 | 14.90582 | 157 ft | 111 kts | 309° |
| 2026-04-25 19:27 | 53.58621 | 14.89942 | 149 ft | 21 kts | 315° |
| 2026-04-25 19:27 | 53.58691 | 14.89889 | 147 ft | 7 kts | 8° |